createdAt,value
2019-03-17T05:01:01.120Z,4.30
2019-03-17T05:02:00.995Z,6.70
2019-03-17T05:03:53.678Z,5.90
2019-03-17T05:04:53.543Z,6.80
2019-03-17T05:06:52.721Z,6.30
2019-03-17T05:07:46.092Z,7.10
2019-03-17T05:09:38.784Z,6.10
2019-03-17T05:10:38.650Z,8.40
2019-03-17T05:12:31.319Z,9.40
2019-03-17T05:13:31.205Z,9.10
2019-03-17T05:15:23.890Z,7.90
2019-03-17T05:16:23.752Z,7.90
2019-03-17T05:18:16.416Z,8.70
2019-03-17T05:19:16.310Z,6.60
2019-03-17T05:21:08.995Z,7.40
2019-03-17T05:22:08.866Z,8.00
2019-03-17T05:24:01.526Z,7.70
2019-03-17T05:25:01.422Z,11.60
2019-03-17T05:26:54.101Z,8.90
2019-03-17T05:27:53.967Z,5.50
2019-03-17T05:29:46.637Z,7.30
2019-03-17T05:30:46.523Z,7.40
2019-03-17T05:32:39.196Z,6.40
2019-03-17T05:33:39.070Z,9.30
2019-03-17T05:35:31.737Z,6.40
2019-03-17T05:36:31.622Z,7.40
2019-03-17T05:38:24.301Z,7.60
2019-03-17T05:39:24.191Z,7.50
2019-03-17T05:41:16.838Z,6.60
2019-03-17T05:42:16.724Z,6.80
2019-03-17T05:44:09.458Z,7.40
2019-03-17T05:45:09.284Z,6.20
2019-03-17T05:47:01.932Z,7.90
2019-03-17T05:48:01.824Z,7.40
2019-03-17T05:49:54.505Z,8.40
2019-03-17T05:50:54.376Z,5.70
2019-03-17T05:52:47.042Z,7.60
2019-03-17T05:53:46.934Z,6.80
2019-03-17T05:55:39.624Z,7.00
2019-03-17T05:56:39.488Z,6.20
2019-03-17T05:58:32.145Z,8.70
2019-03-17T05:59:32.032Z,6.70
2019-03-17T06:01:24.708Z,6.20
2019-03-17T06:02:24.579Z,8.80
2019-03-17T06:04:17.245Z,8.50
2019-03-17T06:05:17.129Z,4.60
2019-03-17T06:07:18.692Z,6.10
2019-03-17T06:08:09.696Z,5.00
2019-03-17T06:10:02.362Z,8.70
2019-03-17T06:11:02.249Z,8.90
2019-03-17T06:12:54.933Z,5.10
2019-03-17T06:13:54.794Z,8.40
2019-03-17T06:15:47.469Z,6.30
2019-03-17T06:16:47.360Z,8.00
2019-03-17T06:18:40.040Z,7.00
2019-03-17T06:19:39.911Z,8.50
2019-03-17T06:21:32.573Z,5.20
2019-03-17T06:22:32.462Z,6.20
2019-03-17T06:24:25.140Z,7.50
2019-03-17T06:25:25.010Z,7.40
2019-03-17T06:27:17.680Z,5.00
2019-03-17T06:28:17.557Z,8.30
2019-03-17T06:30:10.244Z,7.10
2019-03-17T06:31:10.120Z,7.10
2019-03-17T06:33:02.792Z,5.30
2019-03-17T06:34:02.676Z,7.10
2019-03-17T06:35:55.357Z,6.60
2019-03-17T06:36:55.222Z,8.00
2019-03-17T06:38:47.887Z,6.40
2019-03-17T06:39:47.777Z,8.20
2019-03-17T06:41:40.453Z,5.40
2019-03-17T06:42:40.334Z,5.50
2019-03-17T06:44:32.992Z,7.80
2019-03-17T06:45:32.894Z,9.40
2019-03-17T06:47:25.563Z,8.80
2019-03-17T06:48:25.430Z,4.90
2019-03-17T06:50:18.096Z,7.70
2019-03-17T06:51:17.980Z,7.20
2019-03-17T06:53:10.664Z,6.50
2019-03-17T06:54:10.535Z,5.40
2019-03-17T06:56:03.218Z,5.70
2019-03-17T06:57:03.153Z,8.70
2019-03-17T06:58:55.752Z,6.10
2019-03-17T06:59:55.632Z,5.90
2019-03-17T07:01:48.314Z,10.50
2019-03-17T07:02:48.182Z,6.30
2019-03-17T07:04:40.845Z,4.70
2019-03-17T07:05:40.740Z,7.50
2019-03-17T07:07:43.233Z,7.20
2019-03-17T07:08:33.286Z,6.00
2019-03-17T07:10:25.946Z,4.90
2019-03-17T07:11:25.859Z,5.70
2019-03-17T07:13:18.509Z,6.40
2019-03-17T07:14:18.382Z,6.40
2019-03-17T07:16:11.050Z,7.70
2019-03-17T07:17:10.934Z,5.20
2019-03-17T07:19:03.617Z,5.00
2019-03-17T07:20:03.490Z,7.70
2019-03-17T07:21:56.174Z,5.20
2019-03-17T07:22:56.037Z,4.90
2019-03-17T07:24:48.718Z,6.60
2019-03-17T07:25:48.603Z,4.00
2019-03-17T07:27:41.297Z,3.40
2019-03-17T07:28:41.172Z,4.50
2019-03-17T07:30:33.823Z,3.80
2019-03-17T07:31:33.707Z,3.40
2019-03-17T07:33:26.401Z,3.60
2019-03-17T07:34:26.277Z,3.50
2019-03-17T07:36:18.936Z,4.60
2019-03-17T07:37:18.820Z,3.80
2019-03-17T07:39:12.377Z,2.60
2019-03-17T07:40:11.380Z,2.10
2019-03-17T07:42:04.033Z,6.00
2019-03-17T07:43:03.932Z,4.10
2019-03-17T07:44:56.616Z,2.20
2019-03-17T07:45:56.495Z,2.40
2019-03-17T07:47:49.148Z,2.90
2019-03-17T07:48:49.044Z,2.80
2019-03-17T07:50:41.718Z,2.10
2019-03-17T07:51:41.591Z,2.50
2019-03-17T07:53:34.249Z,2.00
2019-03-17T07:54:35.163Z,1.70
2019-03-17T07:56:26.815Z,1.90
2019-03-17T07:57:26.689Z,1.40
2019-03-17T07:59:19.388Z,1.30
2019-03-17T08:00:30.937Z,1.60
2019-03-17T08:02:11.909Z,2.00
2019-03-17T08:03:11.797Z,1.40
2019-03-17T08:05:04.484Z,1.60
2019-03-17T08:06:04.357Z,1.00
2019-03-17T08:08:08.868Z,1.20
2019-03-17T08:08:56.911Z,1.10
2019-03-17T08:10:49.589Z,1.70
2019-03-17T08:11:49.457Z,1.40
2019-03-17T08:13:42.119Z,1.50
2019-03-17T08:14:42.008Z,1.50
2019-03-17T08:16:34.677Z,1.00
2019-03-17T08:17:34.552Z,1.10
2019-03-17T08:19:27.218Z,1.70
2019-03-17T08:20:27.103Z,1.70
2019-03-17T08:22:19.785Z,1.60
2019-03-17T08:23:19.658Z,1.40
2019-03-17T08:25:12.316Z,1.20
2019-03-17T08:26:12.205Z,1.50
2019-03-17T08:28:04.887Z,1.70
2019-03-17T08:29:04.756Z,1.70
2019-03-17T08:30:57.421Z,2.00
2019-03-17T08:31:57.308Z,1.20
2019-03-17T08:33:49.989Z,1.60
2019-03-17T08:34:49.858Z,1.20
2019-03-17T08:36:42.517Z,1.70
2019-03-17T08:37:42.407Z,3.40
2019-03-17T08:39:35.083Z,2.30
2019-03-17T08:40:34.989Z,2.40
2019-03-17T08:42:27.625Z,0.90
2019-03-17T08:43:27.518Z,1.60
2019-03-17T08:45:20.214Z,0.90
2019-03-17T08:46:20.085Z,1.60
2019-03-17T08:48:12.750Z,1.00
2019-03-17T08:49:12.637Z,1.90
2019-03-17T08:51:05.319Z,1.30
2019-03-17T08:52:05.194Z,1.10
2019-03-17T08:53:57.890Z,1.40
2019-03-17T08:54:57.748Z,1.30
2019-03-17T08:56:50.415Z,1.40
2019-03-17T08:57:50.304Z,1.40
2019-03-17T08:59:42.994Z,0.80
2019-03-17T09:00:42.861Z,1.30
2019-03-17T09:02:35.527Z,1.20
2019-03-17T09:03:35.415Z,1.30
2019-03-17T09:05:28.097Z,2.00
2019-03-17T09:06:27.975Z,1.20
2019-03-17T09:08:20.644Z,1.60
2019-03-17T09:09:20.539Z,1.80
2019-03-17T09:11:13.217Z,9.30
2019-03-17T09:12:13.090Z,21.10
2019-03-17T09:14:05.765Z,1.50
2019-03-17T09:15:05.652Z,1.20
2019-03-17T09:16:58.372Z,2.50
2019-03-17T09:17:58.204Z,2.70
2019-03-17T09:19:50.873Z,1.10
2019-03-17T09:20:50.760Z,2.10
2019-03-17T09:22:43.447Z,2.00
2019-03-17T09:23:43.316Z,1.90
2019-03-17T09:25:35.983Z,5.40
2019-03-17T09:26:35.871Z,2.10
2019-03-17T09:28:28.553Z,3.20
2019-03-17T09:29:28.436Z,2.20
2019-03-17T09:31:21.111Z,2.70
2019-03-17T09:32:20.988Z,2.00
2019-03-17T09:34:13.656Z,2.80
2019-03-17T09:35:13.539Z,2.10
2019-03-17T09:37:06.220Z,2.20
2019-03-17T09:38:06.093Z,2.40
2019-03-17T09:39:58.762Z,1.50
2019-03-17T09:40:58.651Z,2.30
2019-03-17T09:42:51.336Z,3.00
2019-03-17T09:43:51.225Z,2.30
2019-03-17T09:45:43.911Z,1.70
2019-03-17T09:46:43.765Z,1.90
2019-03-17T09:48:36.428Z,2.60
2019-03-17T09:49:36.327Z,3.30
2019-03-17T09:51:28.997Z,1.90
2019-03-17T09:52:28.879Z,2.70
2019-03-17T09:54:21.539Z,1.90
2019-03-17T09:55:21.434Z,2.40
2019-03-17T09:57:14.115Z,3.20
2019-03-17T09:58:13.991Z,2.30
2019-03-17T10:00:06.672Z,2.10
2019-03-17T10:01:06.549Z,2.40
2019-03-17T10:02:59.237Z,2.70
2019-03-17T10:03:59.106Z,3.10
2019-03-17T10:05:51.782Z,2.10
2019-03-17T10:06:51.671Z,3.30
2019-03-17T10:08:44.353Z,2.10
2019-03-17T10:09:44.225Z,2.10
2019-03-17T10:11:36.897Z,2.20
2019-03-17T10:12:36.803Z,1.60
2019-03-17T10:14:29.470Z,2.20
2019-03-17T10:15:29.347Z,2.30
2019-03-17T10:17:22.048Z,3.20
2019-03-17T10:18:21.903Z,9.80
2019-03-17T10:20:14.588Z,1.40
2019-03-17T10:21:14.559Z,1.80
2019-03-17T10:23:07.129Z,1.70
2019-03-17T10:24:07.019Z,2.50
2019-03-17T10:25:59.709Z,4.10
2019-03-17T10:26:59.578Z,3.00
2019-03-17T10:28:52.269Z,2.50
2019-03-17T10:29:52.140Z,1.60
2019-03-17T10:31:44.808Z,2.90
2019-03-17T10:32:44.699Z,1.80
2019-03-17T10:34:37.381Z,3.00
2019-03-17T10:35:37.255Z,1.50
2019-03-17T10:37:29.919Z,1.90
2019-03-17T10:38:29.813Z,1.60
2019-03-17T10:40:22.496Z,1.70
2019-03-17T10:41:22.368Z,1.90
2019-03-17T10:43:15.075Z,1.40
2019-03-17T10:44:14.961Z,1.80
2019-03-17T10:46:07.646Z,0.80
2019-03-17T10:47:07.518Z,1.40
2019-03-17T10:49:00.186Z,1.30
2019-03-17T10:50:00.067Z,1.60
2019-03-17T10:51:52.763Z,1.00
2019-03-17T10:52:52.625Z,1.10
2019-03-17T10:54:45.319Z,1.50
2019-03-17T10:55:45.189Z,0.60
2019-03-17T10:57:37.855Z,1.30
2019-03-17T10:58:37.739Z,1.20
2019-03-17T11:00:30.421Z,1.20
2019-03-17T11:01:30.300Z,1.20
2019-03-17T11:03:22.965Z,1.30
2019-03-17T11:04:22.850Z,0.80
2019-03-17T11:06:15.542Z,1.10
2019-03-17T11:07:15.403Z,1.00
2019-03-17T11:09:08.076Z,1.20
2019-03-17T11:10:07.967Z,1.10
2019-03-17T11:12:00.641Z,1.80
2019-03-17T11:13:00.513Z,1.90
2019-03-17T11:14:53.178Z,1.90
2019-03-17T11:15:53.071Z,0.90
2019-03-17T11:17:45.755Z,1.50
2019-03-17T11:18:45.634Z,1.10
2019-03-17T11:20:38.294Z,1.30
2019-03-17T11:21:38.184Z,1.20
2019-03-17T11:23:30.864Z,0.90
2019-03-17T11:24:30.742Z,1.40
2019-03-17T11:26:23.407Z,2.10
2019-03-17T11:27:23.294Z,2.10
2019-03-17T11:29:15.969Z,1.40
2019-03-17T11:30:15.852Z,1.40
2019-03-17T11:32:08.513Z,2.00
2019-03-17T11:33:08.405Z,1.50
2019-03-17T11:35:01.085Z,2.60
2019-03-17T11:36:00.962Z,1.50
2019-03-17T11:37:53.632Z,2.30
2019-03-17T11:38:53.523Z,1.40
2019-03-17T11:40:46.274Z,1.30
2019-03-17T11:41:46.077Z,1.60
2019-03-17T11:43:38.758Z,2.00
2019-03-17T11:44:38.640Z,1.20
2019-03-17T11:46:31.327Z,1.50
2019-03-17T11:47:31.195Z,1.60
2019-03-17T11:49:24.513Z,2.20
2019-03-17T11:50:23.763Z,2.80
2019-03-17T11:52:16.426Z,2.80
2019-03-17T11:53:16.314Z,1.40
2019-03-17T11:55:09.018Z,1.40
2019-03-17T11:56:08.898Z,1.20
2019-03-17T11:58:01.564Z,1.10
2019-03-17T11:59:01.451Z,0.90
2019-03-17T12:00:54.158Z,2.60
2019-03-17T12:01:54.012Z,1.20
2019-03-17T12:03:46.679Z,0.70
2019-03-17T12:04:46.585Z,1.00
2019-03-17T12:06:39.250Z,0.80
2019-03-17T12:07:39.136Z,1.00
2019-03-17T12:09:31.799Z,0.70
2019-03-17T12:10:31.680Z,0.90
2019-03-17T12:12:24.362Z,0.90
2019-03-17T12:13:24.231Z,1.00
2019-03-17T12:15:16.922Z,1.10
2019-03-17T12:16:16.787Z,1.50
2019-03-17T12:18:09.475Z,1.30
2019-03-17T12:19:09.343Z,1.70
2019-03-17T12:21:02.012Z,1.50
2019-03-17T12:22:08.965Z,0.80
2019-03-17T12:23:54.580Z,1.20
2019-03-17T12:24:54.452Z,2.10
2019-03-17T12:26:47.141Z,1.60
2019-03-17T12:27:47.011Z,1.00
2019-03-17T12:29:39.928Z,2.20
2019-03-17T12:30:39.561Z,1.00
2019-03-17T12:32:32.247Z,1.20
2019-03-17T12:33:32.127Z,1.50
2019-03-17T12:35:24.782Z,1.30
2019-03-17T12:36:24.671Z,1.00
2019-03-17T12:38:17.395Z,2.40
2019-03-17T12:39:17.316Z,1.50
2019-03-17T12:41:09.933Z,2.80
2019-03-17T12:42:09.827Z,2.80
2019-03-17T12:44:02.521Z,2.30
2019-03-17T12:45:02.483Z,1.90
2019-03-17T12:46:55.059Z,2.10
2019-03-17T12:47:54.939Z,1.60
2019-03-17T12:49:47.634Z,1.70
2019-03-17T12:50:47.506Z,1.90
2019-03-17T12:52:40.172Z,1.80
2019-03-17T12:53:40.069Z,1.80
2019-03-17T12:55:32.814Z,2.30
2019-03-17T12:56:32.629Z,2.00
2019-03-17T12:58:25.291Z,1.10
2019-03-17T12:59:25.177Z,2.00
2019-03-17T13:01:17.860Z,1.60
2019-03-17T13:02:17.739Z,1.40
2019-03-17T13:04:10.405Z,1.80
2019-03-17T13:05:10.289Z,1.10
2019-03-17T13:07:02.982Z,1.30
2019-03-17T13:08:02.850Z,0.80
2019-03-17T13:09:55.545Z,2.50
2019-03-17T13:10:55.643Z,2.10
2019-03-17T13:12:48.076Z,3.20
2019-03-17T13:13:47.971Z,4.80
2019-03-17T13:15:40.708Z,2.80
2019-03-17T13:16:40.533Z,1.80
2019-03-17T13:18:33.204Z,4.70
2019-03-17T13:19:33.089Z,8.40
2019-03-17T13:21:25.776Z,5.30
2019-03-17T13:22:25.840Z,4.20
2019-03-17T13:24:18.322Z,1.50
2019-03-17T13:25:18.206Z,1.60
2019-03-17T13:27:10.885Z,1.60
2019-03-17T13:28:10.759Z,2.10
2019-03-17T13:30:03.419Z,3.50
2019-03-17T13:31:03.310Z,3.60
2019-03-17T13:32:55.994Z,2.60
2019-03-17T13:33:55.865Z,2.60
2019-03-17T13:35:48.528Z,1.30
2019-03-17T13:36:48.419Z,2.90
2019-03-17T13:38:41.096Z,1.50
2019-03-17T13:39:40.968Z,1.50
2019-03-17T13:41:33.635Z,1.00
2019-03-17T13:42:34.016Z,1.40
2019-03-17T13:44:26.197Z,1.30
2019-03-17T13:45:26.070Z,1.00
2019-03-17T13:47:18.736Z,1.20
2019-03-17T13:48:18.618Z,1.90
2019-03-17T13:50:11.307Z,1.60
2019-03-17T13:51:11.180Z,1.80
2019-03-17T13:53:03.889Z,2.30
2019-03-17T13:54:03.747Z,1.60
2019-03-17T13:55:56.417Z,1.10
2019-03-17T13:56:56.311Z,1.00
2019-03-17T13:58:48.985Z,0.90
2019-03-17T13:59:48.856Z,1.80
2019-03-17T14:01:41.525Z,1.50
2019-03-17T14:02:41.419Z,1.10
2019-03-17T14:04:34.104Z,1.20
2019-03-17T14:05:33.973Z,1.60
2019-03-17T14:07:26.637Z,1.20
2019-03-17T14:08:26.539Z,1.60
2019-03-17T14:10:19.211Z,1.40
2019-03-17T14:11:19.088Z,1.80
2019-03-17T14:13:11.751Z,2.80
2019-03-17T14:14:11.646Z,1.30
2019-03-17T14:16:04.321Z,1.50
2019-03-17T14:17:04.203Z,1.60
2019-03-17T14:18:56.858Z,1.90
2019-03-17T14:19:56.748Z,4.50
2019-03-17T14:21:49.431Z,1.40
2019-03-17T14:22:49.695Z,1.40
2019-03-17T14:24:41.970Z,2.20
2019-03-17T14:25:41.858Z,2.00
2019-03-17T14:27:34.795Z,1.90
2019-03-17T14:28:34.407Z,3.10
2019-03-17T14:30:27.072Z,2.40
2019-03-17T14:31:26.962Z,2.60
2019-03-17T14:33:19.648Z,2.80
2019-03-17T14:34:19.517Z,2.90
2019-03-17T14:36:12.205Z,2.20
2019-03-17T14:37:12.072Z,1.20
2019-03-17T14:39:04.732Z,4.50
2019-03-17T14:40:04.630Z,3.00
2019-03-17T14:41:57.315Z,2.00
2019-03-17T14:42:57.289Z,2.30
2019-03-17T14:44:49.859Z,1.00
2019-03-17T14:45:49.752Z,1.80
2019-03-17T14:47:42.420Z,1.30
2019-03-17T14:48:42.296Z,2.30
2019-03-17T14:50:34.960Z,1.60
2019-03-17T14:51:34.846Z,1.00
2019-03-17T14:53:27.527Z,2.20
2019-03-17T14:54:27.405Z,1.40
2019-03-17T14:56:20.068Z,1.90
2019-03-17T14:57:19.958Z,1.60
2019-03-17T14:59:12.731Z,2.30
2019-03-17T15:00:12.513Z,1.40
2019-03-17T15:02:05.175Z,1.80
2019-03-17T15:03:05.066Z,1.90
2019-03-17T15:04:57.749Z,1.70
2019-03-17T15:05:57.621Z,3.10
2019-03-17T15:07:50.349Z,1.90
2019-03-17T15:08:50.178Z,1.70
2019-03-17T15:10:42.844Z,1.90
2019-03-17T15:11:42.736Z,1.20
2019-03-17T15:13:35.418Z,3.50
2019-03-17T15:14:35.290Z,2.40
2019-03-17T15:16:27.963Z,1.90
2019-03-17T15:17:27.846Z,1.90
2019-03-17T15:19:20.527Z,3.30
2019-03-17T15:20:20.407Z,2.50
2019-03-17T15:22:13.063Z,2.40
2019-03-17T15:23:12.962Z,1.90
2019-03-17T15:25:05.639Z,2.80
2019-03-17T15:26:05.521Z,1.80
2019-03-17T15:27:58.178Z,2.10
2019-03-17T15:28:58.069Z,2.10
2019-03-17T15:31:05.592Z,2.30
2019-03-17T15:31:50.630Z,2.90
2019-03-17T15:33:43.283Z,2.00
2019-03-17T15:34:43.177Z,2.60
2019-03-17T15:36:35.852Z,4.00
2019-03-17T15:37:35.724Z,1.90
2019-03-17T15:39:28.386Z,2.60
2019-03-17T15:40:28.285Z,1.60
2019-03-17T15:42:20.957Z,2.10
2019-03-17T15:43:20.833Z,2.20
2019-03-17T15:45:13.524Z,2.30
2019-03-17T15:46:13.389Z,2.20
2019-03-17T15:48:06.071Z,3.90
2019-03-17T15:49:05.945Z,2.20
2019-03-17T15:50:58.605Z,6.70
2019-03-17T15:51:58.503Z,3.20
2019-03-17T15:53:51.173Z,2.90
2019-03-17T15:54:51.049Z,3.30
2019-03-17T15:56:43.742Z,2.90
2019-03-17T15:57:43.622Z,3.30
2019-03-17T15:59:36.277Z,2.70
2019-03-17T16:00:36.160Z,4.30
2019-03-17T16:02:28.847Z,3.00
2019-03-17T16:03:28.711Z,3.40
2019-03-17T16:05:21.382Z,1.40
2019-03-17T16:06:21.261Z,2.00
2019-03-17T16:08:13.942Z,2.60
2019-03-17T16:09:13.819Z,2.00
2019-03-17T16:11:06.483Z,3.50
2019-03-17T16:12:06.365Z,1.80
2019-03-17T16:13:59.043Z,2.10
2019-03-17T16:14:58.921Z,2.70
2019-03-17T16:16:51.576Z,2.60
2019-03-17T16:17:51.468Z,2.80
2019-03-17T16:19:44.144Z,3.20
2019-03-17T16:20:44.020Z,3.40
2019-03-17T16:22:36.682Z,3.40
2019-03-17T16:23:36.568Z,4.50
2019-03-17T16:25:29.247Z,3.40
2019-03-17T16:26:29.124Z,3.20
2019-03-17T16:28:21.785Z,2.90
2019-03-17T16:29:21.672Z,3.10
2019-03-17T16:31:14.349Z,3.20
2019-03-17T16:32:14.226Z,3.70
2019-03-17T16:34:06.990Z,2.40
2019-03-17T16:35:06.854Z,2.50
2019-03-17T16:36:59.515Z,3.30
2019-03-17T16:37:59.404Z,2.90
2019-03-17T16:39:52.084Z,3.80
2019-03-17T16:40:51.950Z,4.00
2019-03-17T16:42:44.635Z,3.60
2019-03-17T16:43:44.502Z,2.40
2019-03-17T16:45:37.182Z,4.70
2019-03-17T16:46:37.050Z,3.00
2019-03-17T16:48:29.723Z,2.60
2019-03-17T16:49:29.610Z,2.70
2019-03-17T16:51:22.286Z,4.20
2019-03-17T16:52:22.179Z,3.30
2019-03-17T16:54:14.817Z,3.00
2019-03-17T16:55:14.766Z,3.60
2019-03-17T16:57:07.383Z,4.10
2019-03-17T16:58:07.257Z,3.80
2019-03-17T16:59:59.914Z,4.20
2019-03-17T17:01:00.007Z,3.40
2019-03-17T17:02:52.487Z,3.60
2019-03-17T17:03:52.349Z,4.90
2019-03-17T17:05:45.009Z,3.20
2019-03-17T17:06:44.900Z,4.00
2019-03-17T17:08:37.571Z,3.70
2019-03-17T17:09:37.444Z,2.80
2019-03-17T17:11:30.156Z,3.80
2019-03-17T17:12:29.994Z,3.60
2019-03-17T17:14:22.667Z,4.30
2019-03-17T17:15:22.551Z,4.30
2019-03-17T17:17:15.234Z,4.40
2019-03-17T17:18:15.105Z,3.50
2019-03-17T17:20:07.767Z,6.70
2019-03-17T17:21:07.654Z,7.90
2019-03-17T17:23:00.334Z,4.60
2019-03-17T17:24:00.204Z,6.70
2019-03-17T17:25:53.011Z,4.50
2019-03-17T17:26:52.897Z,6.90
2019-03-17T17:28:45.577Z,4.30
2019-03-17T17:29:45.442Z,6.10
2019-03-17T17:31:38.100Z,6.10
2019-03-17T17:32:37.994Z,6.50
2019-03-17T17:34:30.666Z,3.10
2019-03-17T17:35:30.540Z,2.80
2019-03-17T17:37:23.216Z,5.40
2019-03-17T17:38:23.092Z,6.90
2019-03-17T17:40:15.744Z,3.70
2019-03-17T17:41:15.631Z,4.50
2019-03-17T17:43:08.307Z,4.30
2019-03-17T17:44:08.179Z,6.00
2019-03-17T17:46:00.838Z,6.30
2019-03-17T17:47:00.722Z,5.60
2019-03-17T17:48:53.403Z,9.00
2019-03-17T17:49:53.279Z,6.80
2019-03-17T17:51:45.970Z,5.70
2019-03-17T17:52:45.831Z,3.70
2019-03-17T17:54:38.508Z,3.80
2019-03-17T17:55:38.383Z,6.60
2019-03-17T17:57:31.038Z,5.00
2019-03-17T17:58:30.923Z,6.70
2019-03-17T18:00:23.599Z,7.80
2019-03-17T18:01:23.476Z,5.70
2019-03-17T18:03:16.129Z,4.40
2019-03-17T18:04:16.184Z,4.10
2019-03-17T18:06:08.700Z,3.90
2019-03-17T18:07:08.570Z,4.90
2019-03-17T18:09:01.219Z,4.00
2019-03-17T18:10:01.109Z,5.90
2019-03-17T18:11:53.789Z,5.50
2019-03-17T18:12:53.658Z,3.50
2019-03-17T18:14:46.315Z,4.30
2019-03-17T18:15:46.197Z,5.20
2019-03-17T18:17:38.877Z,2.60
2019-03-17T18:18:38.748Z,3.50
2019-03-17T18:20:31.407Z,4.00
2019-03-17T18:21:31.296Z,4.40
2019-03-17T18:23:23.972Z,4.80
2019-03-17T18:24:23.839Z,4.90
2019-03-17T18:26:16.525Z,5.40
2019-03-17T18:27:18.200Z,2.90
2019-03-17T18:29:09.040Z,3.50
2019-03-17T18:30:08.929Z,3.10
2019-03-17T18:32:01.598Z,3.20
2019-03-17T18:33:01.472Z,4.10
2019-03-17T18:34:54.213Z,3.70
2019-03-17T18:35:54.015Z,4.70
2019-03-17T18:37:46.718Z,4.30
2019-03-17T18:38:46.570Z,4.20
2019-03-17T18:40:39.220Z,3.80
2019-03-17T18:41:39.118Z,7.40
2019-03-17T18:43:31.782Z,6.20
2019-03-17T18:44:31.655Z,4.60
2019-03-17T18:46:24.315Z,5.10
2019-03-17T18:47:24.224Z,4.40
2019-03-17T18:49:16.873Z,4.20
2019-03-17T18:50:20.677Z,4.80
2019-03-17T18:52:09.420Z,4.00
2019-03-17T18:53:09.292Z,3.50
2019-03-17T18:55:02.008Z,3.20
2019-03-17T18:56:01.841Z,4.00
2019-03-17T18:57:54.504Z,5.60
2019-03-17T18:58:54.381Z,3.70
2019-03-17T19:00:47.060Z,3.70
2019-03-17T19:01:46.925Z,3.40
2019-03-17T19:03:39.585Z,3.60
2019-03-17T19:04:39.495Z,5.40
2019-03-17T19:06:32.211Z,4.60
2019-03-17T19:07:32.091Z,4.80
2019-03-17T19:09:24.759Z,4.00
2019-03-17T19:10:24.622Z,6.20
2019-03-17T19:12:17.282Z,4.40
2019-03-17T19:13:17.166Z,4.80
2019-03-17T19:15:09.842Z,4.40
2019-03-17T19:16:09.707Z,3.50
2019-03-17T19:18:02.378Z,4.30
2019-03-17T19:19:02.261Z,4.80
2019-03-17T19:20:54.935Z,3.10
2019-03-17T19:21:54.811Z,3.40
2019-03-17T19:23:47.465Z,7.30
2019-03-17T19:24:47.354Z,4.50
2019-03-17T19:26:40.101Z,5.50
2019-03-17T19:27:39.897Z,4.30
2019-03-17T19:29:32.558Z,3.90
2019-03-17T19:30:32.449Z,5.50
2019-03-17T19:32:25.244Z,6.30
2019-03-17T19:33:24.990Z,3.50
2019-03-17T19:35:17.648Z,5.90
2019-03-17T19:36:17.539Z,4.00
2019-03-17T19:38:10.231Z,3.70
2019-03-17T19:39:10.115Z,3.20
2019-03-17T19:41:02.775Z,3.10
2019-03-17T19:42:02.654Z,5.70
2019-03-17T19:43:55.326Z,5.40
2019-03-17T19:44:55.198Z,5.00
2019-03-17T19:46:47.854Z,4.80
2019-03-17T19:47:47.744Z,5.70
2019-03-17T19:49:40.410Z,4.40
2019-03-17T19:50:40.295Z,4.90
2019-03-17T19:52:32.940Z,5.40
2019-03-17T19:53:32.826Z,6.00
2019-03-17T19:55:25.514Z,4.40
2019-03-17T19:56:25.370Z,3.70
2019-03-17T19:58:18.053Z,4.70
2019-03-17T19:59:17.921Z,4.00
2019-03-17T20:01:10.576Z,6.50
2019-03-17T20:02:10.463Z,4.50
2019-03-17T20:04:03.138Z,5.30
2019-03-17T20:05:03.006Z,5.00
2019-03-17T20:06:55.660Z,13.00
2019-03-17T20:07:55.547Z,5.90
2019-03-17T20:09:48.233Z,7.70
2019-03-17T20:10:48.198Z,3.60
2019-03-17T20:12:40.774Z,5.50
2019-03-17T20:13:40.654Z,5.10
2019-03-17T20:15:33.331Z,3.60
2019-03-17T20:16:33.206Z,3.40
2019-03-17T20:18:25.855Z,3.30
2019-03-17T20:19:25.739Z,3.00
2019-03-17T20:21:18.422Z,3.40
2019-03-17T20:22:18.288Z,5.20
2019-03-17T20:24:10.949Z,3.70
2019-03-17T20:25:10.841Z,4.40
2019-03-17T20:27:03.510Z,3.70
2019-03-17T20:28:03.381Z,3.50
2019-03-17T20:29:56.045Z,3.00
2019-03-17T20:30:55.932Z,3.60
2019-03-17T20:32:48.606Z,3.20
2019-03-17T20:33:48.472Z,3.00
2019-03-17T20:35:41.132Z,4.20
2019-03-17T20:36:41.019Z,3.10
2019-03-17T20:38:33.700Z,4.00
2019-03-17T20:39:33.568Z,2.80
2019-03-17T20:41:26.413Z,4.00
2019-03-17T20:42:26.151Z,3.90
2019-03-17T20:44:18.773Z,3.00
2019-03-17T20:45:20.326Z,4.20
2019-03-17T20:47:11.331Z,3.40
2019-03-17T20:48:11.265Z,4.50
2019-03-17T20:50:03.862Z,4.60
2019-03-17T20:51:03.745Z,3.70
2019-03-17T20:52:56.429Z,4.10
2019-03-17T20:53:56.291Z,3.50
2019-03-17T20:55:48.948Z,2.70
2019-03-17T20:56:48.836Z,3.80
2019-03-17T20:58:41.527Z,4.90
2019-03-17T20:59:41.387Z,4.70
2019-03-17T21:01:34.071Z,3.20
2019-03-17T21:02:33.934Z,3.50
2019-03-17T21:04:26.610Z,3.50
2019-03-17T21:05:26.480Z,4.30
2019-03-17T21:07:19.141Z,4.80
2019-03-17T21:08:19.030Z,3.00
2019-03-17T21:10:11.705Z,3.50
2019-03-17T21:11:11.576Z,4.30
2019-03-17T21:13:04.232Z,3.10
2019-03-17T21:14:04.135Z,2.40
2019-03-17T21:15:56.794Z,3.60
2019-03-17T21:16:56.658Z,3.40
2019-03-17T21:18:49.318Z,2.20
2019-03-17T21:19:49.237Z,3.20
2019-03-17T21:21:41.891Z,2.30
2019-03-17T21:22:41.761Z,4.30
2019-03-17T21:24:34.412Z,3.00
2019-03-17T21:25:34.301Z,2.40
2019-03-17T21:27:26.972Z,2.00
2019-03-17T21:28:27.798Z,4.00
2019-03-17T21:30:19.510Z,2.10
2019-03-17T21:31:19.387Z,3.10
2019-03-17T21:33:12.119Z,3.20
2019-03-17T21:34:11.936Z,2.50
2019-03-17T21:36:04.589Z,1.90
2019-03-17T21:37:04.482Z,1.70
2019-03-17T21:38:57.155Z,1.90
2019-03-17T21:39:57.028Z,2.50
2019-03-17T21:41:49.704Z,2.00
2019-03-17T21:42:49.571Z,3.10
2019-03-17T21:44:42.224Z,3.20
2019-03-17T21:45:42.114Z,2.00
2019-03-17T21:47:34.787Z,1.60
2019-03-17T21:48:34.754Z,3.40
2019-03-17T21:50:27.321Z,2.00
2019-03-17T21:51:27.207Z,2.70
2019-03-17T21:53:19.875Z,2.60
2019-03-17T21:54:19.750Z,3.50
2019-03-17T21:56:12.419Z,2.90
2019-03-17T21:57:12.307Z,3.00
2019-03-17T21:59:05.141Z,2.10
2019-03-17T22:00:04.862Z,2.80
2019-03-17T22:01:57.538Z,2.50
2019-03-17T22:02:57.401Z,3.80
2019-03-17T22:04:50.061Z,2.50
2019-03-17T22:05:49.950Z,3.40
2019-03-17T22:07:49.271Z,3.80
2019-03-17T22:08:42.509Z,3.00
2019-03-17T22:10:35.150Z,2.20
2019-03-17T22:11:35.054Z,2.40
2019-03-17T22:13:27.706Z,3.30
2019-03-17T22:14:27.579Z,2.60
2019-03-17T22:16:20.238Z,3.00
2019-03-17T22:17:20.140Z,3.70
2019-03-17T22:19:12.803Z,3.20
2019-03-17T22:20:12.678Z,3.50
2019-03-17T22:22:05.360Z,3.00
2019-03-17T22:23:05.219Z,3.00
2019-03-17T22:24:57.901Z,2.60
2019-03-17T22:25:57.776Z,2.60
2019-03-17T22:27:50.468Z,2.70
2019-03-17T22:28:50.330Z,3.70
2019-03-17T22:30:43.005Z,4.20
2019-03-17T22:31:43.022Z,3.30
2019-03-17T22:33:35.593Z,3.60
2019-03-17T22:34:35.455Z,3.20
2019-03-17T22:36:28.158Z,3.90
2019-03-17T22:37:28.000Z,5.80
2019-03-17T22:39:20.805Z,3.40
2019-03-17T22:40:20.621Z,3.20
2019-03-17T22:42:13.297Z,3.60
2019-03-17T22:43:13.214Z,3.90
2019-03-17T22:45:05.903Z,6.90
2019-03-17T22:46:05.744Z,4.20
2019-03-17T22:47:58.450Z,3.60
2019-03-17T22:48:58.316Z,3.30
2019-03-17T22:50:51.009Z,3.50
2019-03-17T22:51:50.866Z,3.90
2019-03-17T22:53:44.040Z,2.90
2019-03-17T22:54:43.901Z,3.40
2019-03-17T22:56:37.053Z,3.30
2019-03-17T22:57:36.936Z,3.40
2019-03-17T22:59:29.618Z,3.50
